Time;durP1;ratioP1;P1;durP2;ratioP2;P2;SDS_P1;SDS_P2;PMS_P1;PMS_P2;Temp;Humidity;BMP_temperature;BMP_pressure;BME280_temperature;BME280_humidity;BME280_pressure;Samples;Min_cycle;Max_cycle;Signal;HPM_P1;HPM_P2
2021/12/22 00:01:50;;;;;;;26.90;13.88;;;;;;;-3.29;97.99;101483.12;5590813;31;35079;-65
2021/12/22 00:04:54;;;;;;;26.65;12.90;;;;;;;-3.22;97.51;101488.94;5589851;31;33401;-65
2021/12/22 00:07:57;;;;;;;28.42;14.02;;;;;;;-3.37;97.78;101479.09;5590399;31;34613;-65
2021/12/22 00:11:00;;;;;;;25.98;12.32;;;;;;;-3.51;98.38;101484.75;5590415;31;35192;-65
2021/12/22 00:14:03;;;;;;;23.58;12.30;;;;;;;-3.59;98.99;101482.44;5590434;31;33822;-65
2021/12/22 00:17:07;;;;;;;27.60;13.48;;;;;;;-3.61;99.52;101488.56;5590402;31;33913;-65
2021/12/22 00:20:11;;;;;;;26.90;14.15;;;;;;;-3.52;99.12;101494.28;5589512;31;33936;-66
2021/12/22 00:23:14;;;;;;;28.23;14.63;;;;;;;-3.59;100.00;101500.59;5590283;31;34381;-66
2021/12/22 00:26:17;;;;;;;29.40;14.57;;;;;;;-3.57;99.69;101503.97;5590115;31;34451;-66
2021/12/22 00:29:20;;;;;;;34.10;14.98;;;;;;;-3.67;98.98;101510.34;5590287;31;33821;-65
2021/12/22 00:32:25;;;;;;;34.08;15.75;;;;;;;-3.66;99.35;101517.25;5590165;31;33938;-65
2021/12/22 00:35:37;;;;;;;33.90;16.70;;;;;;;-3.75;99.66;101522.72;5590195;31;34358;-65
2021/12/22 00:38:40;;;;;;;29.23;15.32;;;;;;;-3.72;100.00;101524.34;5590241;31;33912;-65
2021/12/22 00:41:43;;;;;;;32.55;16.42;;;;;;;-3.81;99.66;101527.25;5590213;31;34351;-65
2021/12/22 00:44:50;;;;;;;34.03;17.25;;;;;;;-3.83;100.00;101521.28;5590195;31;34237;-65
2021/12/22 00:47:54;;;;;;;43.00;22.77;;;;;;;-3.81;99.67;101524.66;5590086;31;34729;-66
2021/12/22 00:50:58;;;;;;;34.55;19.02;;;;;;;-3.85;100.00;101528.25;5590063;31;34653;-65
2021/12/22 00:54:01;;;;;;;47.53;18.98;;;;;;;-3.90;100.00;101543.94;5589908;31;34568;-65
2021/12/22 00:57:06;;;;;;;35.83;17.27;;;;;;;-3.95;100.00;101531.13;5589985;31;34575;-66
2021/12/22 01:00:09;;;;;;;29.85;16.35;;;;;;;-3.96;100.00;101531.16;5590282;31;33844;-66
2021/12/22 01:03:14;;;;;;;34.15;15.73;;;;;;;-4.14;100.00;101536.94;5589912;31;33904;-66
2021/12/22 01:06:17;;;;;;;30.60;16.12;;;;;;;-4.20;100.00;101537.97;5589959;31;33948;-66
2021/12/22 01:09:20;;;;;;;30.92;15.07;;;;;;;-4.21;100.00;101540.62;5590218;31;33832;-66
2021/12/22 01:12:23;;;;;;;29.92;15.27;;;;;;;-4.20;100.00;101547.47;5589742;31;35075;-66
2021/12/22 01:15:27;;;;;;;31.55;16.25;;;;;;;-4.22;100.00;101544.94;5589848;31;33913;-66
2021/12/22 01:18:32;;;;;;;31.80;16.65;;;;;;;-4.18;100.00;101550.88;5589770;31;34749;-66
2021/12/22 01:21:44;;;;;;;26.77;14.02;;;;;;;-4.14;100.00;101548.16;5589835;31;34589;-66
2021/12/22 01:24:49;;;;;;;27.98;14.68;;;;;;;-4.06;100.00;101560.84;5589676;31;34497;-66
2021/12/22 01:27:52;;;;;;;24.60;14.07;;;;;;;-4.01;100.00;101556.38;5589644;31;34538;-66
2021/12/22 01:31:01;;;;;;;21.87;12.07;;;;;;;-3.94;99.71;101544.94;5590060;31;34216;-66
2021/12/22 01:34:03;;;;;;;19.45;9.82;;;;;;;-3.80;98.35;101547.94;5589657;31;34180;-66
2021/12/22 01:37:07;;;;;;;18.73;9.57;;;;;;;-3.85;97.94;101552.44;5589799;31;33812;-65
2021/12/22 01:40:11;;;;;;;23.45;9.77;;;;;;;-3.87;98.16;101551.63;5589885;31;33909;-66
2021/12/22 01:43:16;;;;;;;20.83;9.80;;;;;;;-3.88;98.03;101552.53;5589725;31;33932;-66
2021/12/22 01:49:51;;;;;;;15.57;8.23;;;;;;;-3.73;96.71;101548.63;5589586;31;34536;-66
2021/12/22 01:52:54;;;;;;;18.50;8.30;;;;;;;-3.64;95.32;101541.38;5589848;31;34592;-66
2021/12/22 01:56:05;;;;;;;16.23;8.05;;;;;;;-3.51;94.91;101552.19;5589615;31;33947;-66
2021/12/22 01:59:09;;;;;;;15.27;7.93;;;;;;;-3.44;94.35;101555.44;5589260;31;33854;-66
2021/12/22 02:02:14;;;;;;;19.12;8.70;;;;;;;-3.61;94.37;101556.84;5589487;31;34203;-66
2021/12/22 02:05:17;;;;;;;14.63;8.60;;;;;;;-3.60;94.67;101555.94;5589414;31;34182;-66
2021/12/22 02:08:19;;;;;;;17.62;9.07;;;;;;;-3.59;94.42;101564.56;5589457;31;33960;-66
2021/12/22 02:11:22;;;;;;;16.48;8.70;;;;;;;-3.64;95.35;101561.28;5589386;31;34642;-66
2021/12/22 02:14:25;;;;;;;16.90;7.47;;;;;;;-3.72;95.36;101556.31;5589751;31;33831;-66
2021/12/22 02:17:28;;;;;;;23.20;7.78;;;;;;;-3.66;95.62;101550.94;5589297;31;34225;-66
2021/12/22 02:20:30;;;;;;;14.40;7.40;;;;;;;-3.65;95.64;101555.25;5589276;31;34687;-66
2021/12/22 02:23:33;;;;;;;12.45;7.12;;;;;;;-3.64;95.90;101553.50;5589241;31;33815;-66
2021/12/22 02:26:46;;;;;;;16.35;7.35;;;;;;;-3.80;96.00;101550.53;5588188;31;33992;-66
2021/12/22 02:29:49;;;;;;;13.80;6.75;;;;;;;-3.80;96.56;101558.31;5589009;31;34003;-65
2021/12/22 02:39:07;;;;;;;12.05;6.75;;;;;;;-3.75;96.72;101561.63;5588911;31;34536;-65
2021/12/22 02:42:12;;;;;;;13.85;7.37;;;;;;;-3.70;94.84;101551.94;5589161;31;34297;-65
2021/12/22 02:45:19;;;;;;;14.45;6.80;;;;;;;-3.62;94.69;101551.69;5588769;31;33824;-65
2021/12/22 02:48:23;;;;;;;14.07;6.85;;;;;;;-3.57;94.56;101552.37;5588616;31;33830;-65
2021/12/22 02:51:30;;;;;;;12.32;6.62;;;;;;;-3.53;94.57;101547.06;5588269;31;33889;-65
2021/12/22 02:54:40;;;;;;;12.00;5.90;;;;;;;-3.53;94.13;101553.97;5588560;31;33933;-65
2021/12/22 02:57:48;;;;;;;11.95;6.45;;;;;;;-3.56;94.29;101549.75;5588175;31;34159;-65
2021/12/22 03:04:02;;;;;;;11.95;5.72;;;;;;;-3.32;92.07;101560.22;5588486;31;34143;-65
2021/12/22 03:07:10;;;;;;;11.85;5.93;;;;;;;-3.21;92.40;101571.09;5588013;31;34311;-66
2021/12/22 03:10:17;;;;;;;15.50;6.05;;;;;;;-3.12;90.99;101568.19;5589698;31;34263;-65
2021/12/22 03:13:21;;;;;;;9.90;5.60;;;;;;;-3.17;90.90;101567.50;5590262;31;34578;-66
2021/12/22 03:16:24;;;;;;;13.85;6.55;;;;;;;-3.16;91.01;101567.44;5590966;31;34144;-65
2021/12/22 03:19:34;;;;;;;13.70;6.37;;;;;;;-3.17;90.97;101575.28;5590952;31;33936;-65
2021/12/22 03:22:37;;;;;;;12.20;5.53;;;;;;;-3.15;90.65;101576.91;5591023;31;33885;-65
2021/12/22 03:25:40;;;;;;;13.70;5.65;;;;;;;-3.16;90.37;101577.84;5590994;31;34607;-66
2021/12/22 03:28:45;;;;;;;9.90;5.32;;;;;;;-2.99;89.79;101581.59;5591013;31;34479;-65
2021/12/22 03:31:48;;;;;;;9.93;5.70;;;;;;;-2.91;89.74;101595.19;5590954;31;33912;-66
2021/12/22 03:34:50;;;;;;;10.65;5.90;;;;;;;-2.80;87.92;101591.28;5590079;31;34594;-65
2021/12/22 03:37:57;;;;;;;9.13;5.05;;;;;;;-2.84;86.18;101586.25;5591072;31;34010;-65
2021/12/22 03:41:00;;;;;;;9.32;4.80;;;;;;;-2.92;85.07;101589.13;5590741;31;33928;-65
2021/12/22 03:44:04;;;;;;;10.68;4.65;;;;;;;-2.74;85.51;101587.62;5590813;31;33938;-66
2021/12/22 03:47:08;;;;;;;11.10;5.30;;;;;;;-2.76;87.58;101581.66;5590746;31;34483;-66
2021/12/22 03:50:12;;;;;;;11.40;6.30;;;;;;;-2.81;86.67;101586.97;5590915;31;35171;-65
2021/12/22 03:53:15;;;;;;;12.13;5.82;;;;;;;-2.85;89.57;101585.41;5590441;31;34585;-65
2021/12/22 03:56:18;;;;;;;12.57;5.55;;;;;;;-2.83;88.96;101583.63;5590524;31;34790;-65
2021/12/22 03:59:20;;;;;;;12.93;5.80;;;;;;;-2.89;88.89;101596.81;5589731;31;33997;-65
2021/12/22 04:02:24;;;;;;;11.05;5.90;;;;;;;-2.82;89.07;101592.25;5590992;31;34041;-65
2021/12/22 04:05:27;;;;;;;17.02;6.07;;;;;;;-2.86;88.97;101598.47;5590928;31;35049;-65
2021/12/22 04:08:30;;;;;;;12.05;6.32;;;;;;;-2.94;88.83;101605.66;5590481;31;34565;-65
2021/12/22 04:11:33;;;;;;;19.98;7.65;;;;;;;-3.01;89.37;101598.97;5590533;31;34616;-66
2021/12/22 04:14:35;;;;;;;13.93;7.62;;;;;;;-2.95;90.92;101597.00;5590319;31;34632;-65
2021/12/22 04:17:38;;;;;;;15.05;7.53;;;;;;;-3.02;89.25;101589.50;5590342;31;34010;-65
2021/12/22 04:20:40;;;;;;;15.18;7.35;;;;;;;-2.94;89.67;101590.91;5590307;31;33914;-65
2021/12/22 04:23:43;;;;;;;12.40;7.07;;;;;;;-3.01;89.89;101592.03;5590688;31;33873;-65
2021/12/22 04:26:46;;;;;;;14.23;7.18;;;;;;;-2.96;89.86;101591.88;5590171;31;33926;-65
2021/12/22 04:29:49;;;;;;;13.18;7.18;;;;;;;-2.95;90.08;101596.19;5590252;31;34345;-65
2021/12/22 04:32:52;;;;;;;16.42;7.25;;;;;;;-3.03;90.79;101598.16;5589853;31;33817;-65
2021/12/22 04:35:55;;;;;;;13.70;6.97;;;;;;;-3.07;89.76;101600.88;5590351;31;34153;-65
2021/12/22 04:38:59;;;;;;;13.05;6.78;;;;;;;-2.96;91.05;101599.66;5590236;31;34248;-66
2021/12/22 04:42:02;;;;;;;12.55;6.93;;;;;;;-3.02;91.15;101595.53;5590225;31;33993;-66
2021/12/22 04:45:07;;;;;;;13.85;7.93;;;;;;;-3.04;91.66;101609.44;5590147;31;33936;-66
2021/12/22 04:48:10;;;;;;;14.07;8.30;;;;;;;-3.04;91.95;101614.62;5590248;31;34061;-65
2021/12/22 04:51:23;;;;;;;12.65;6.97;;;;;;;-3.18;91.99;101612.50;5590209;31;34152;-65
2021/12/22 04:57:32;;;;;;;12.65;6.75;;;;;;;-3.22;91.95;101621.28;5589903;31;33809;-66
2021/12/22 05:00:37;;;;;;;14.50;6.62;;;;;;;-3.17;91.33;101616.81;5590034;31;34308;-67
2021/12/22 05:03:41;;;;;;;11.02;6.65;;;;;;;-3.06;91.41;101614.72;5589951;31;33931;-67
2021/12/22 05:06:47;;;;;;;13.93;6.72;;;;;;;-3.00;90.87;101624.03;5590306;31;33789;-67
2021/12/22 05:09:50;;;;;;;15.93;7.57;;;;;;;-3.00;89.98;101621.44;5589900;31;34510;-67
2021/12/22 05:12:53;;;;;;;12.02;6.85;;;;;;;-2.93;89.59;101612.53;5589833;31;34033;-67
2021/12/22 05:15:56;;;;;;;14.18;7.37;;;;;;;-2.87;89.88;101622.72;5589867;31;34221;-67
2021/12/22 05:19:10;;;;;;;15.00;8.13;;;;;;;-2.92;89.69;101625.47;5589902;31;33911;-67
2021/12/22 05:22:14;;;;;;;13.45;6.70;;;;;;;-2.93;89.46;101617.72;5589081;31;33924;-67
2021/12/22 05:25:17;;;;;;;11.95;6.40;;;;;;;-2.93;88.88;101623.78;5589858;31;34581;-67
2021/12/22 05:28:19;;;;;;;15.60;6.80;;;;;;;-2.88;87.79;101618.41;5589542;31;35170;-67
2021/12/22 05:31:23;;;;;;;13.45;7.55;;;;;;;-2.94;88.13;101619.47;5589208;31;34368;-67
2021/12/22 05:34:26;;;;;;;11.73;6.65;;;;;;;-2.93;87.78;101625.53;5588840;31;33901;-67
2021/12/22 05:37:29;;;;;;;12.90;7.05;;;;;;;-2.93;87.81;101623.78;5588908;31;33851;-67
2021/12/22 05:40:31;;;;;;;12.82;7.47;;;;;;;-3.01;88.03;101630.13;5588874;31;33961;-67
2021/12/22 05:43:34;;;;;;;14.38;7.28;;;;;;;-3.07;88.74;101638.97;5589690;31;33888;-67
2021/12/22 05:46:37;;;;;;;15.13;6.97;;;;;;;-3.08;89.00;101637.25;5589549;31;34253;-67
2021/12/22 05:49:40;;;;;;;14.30;7.25;;;;;;;-3.13;89.24;101642.59;5588738;31;33731;-67
2021/12/22 05:52:43;;;;;;;13.20;6.72;;;;;;;-3.22;89.10;101637.72;5589532;31;33846;-67
2021/12/22 05:55:45;;;;;;;13.07;7.07;;;;;;;-3.21;89.87;101643.75;5589356;31;33882;-67
2021/12/22 05:58:48;;;;;;;17.50;8.13;;;;;;;-3.14;89.62;101635.72;5589453;31;33889;-67
2021/12/22 06:01:51;;;;;;;14.50;7.90;;;;;;;-3.06;89.70;101651.06;5589312;31;33910;-67
2021/12/22 06:04:54;;;;;;;12.05;6.87;;;;;;;-2.87;89.68;101659.94;5589437;31;33780;-67
2021/12/22 06:07:56;;;;;;;14.77;7.12;;;;;;;-3.00;87.87;101650.81;5589290;31;34722;-67
2021/12/22 06:10:59;;;;;;;15.50;7.50;;;;;;;-3.01;87.89;101659.53;5589100;31;33950;-67
2021/12/22 06:14:03;;;;;;;14.25;7.05;;;;;;;-2.98;88.88;101658.56;5589447;31;34494;-67
2021/12/22 06:17:06;;;;;;;16.85;7.93;;;;;;;-2.85;87.62;101659.84;5589084;31;33851;-67
2021/12/22 06:20:10;;;;;;;15.18;7.60;;;;;;;-2.77;88.38;101671.69;5588385;31;33961;-67
2021/12/22 06:23:13;;;;;;;15.65;8.20;;;;;;;-2.73;88.18;101675.03;5589210;31;34360;-67
2021/12/22 06:26:16;;;;;;;15.05;7.95;;;;;;;-2.81;89.46;101675.28;5588827;31;34049;-67
2021/12/22 06:29:19;;;;;;;14.80;7.97;;;;;;;-2.79;89.47;101678.69;5588879;31;33955;-67
2021/12/22 06:32:22;;;;;;;13.35;7.45;;;;;;;-2.83;90.06;101677.09;5588915;31;33874;-67
2021/12/22 06:35:24;;;;;;;16.35;8.43;;;;;;;-2.75;90.10;101687.22;5588422;31;34475;-67
2021/12/22 06:38:27;;;;;;;16.80;8.63;;;;;;;-2.68;89.94;101696.50;5588015;31;33954;-67
2021/12/22 06:41:31;;;;;;;16.85;8.65;;;;;;;-2.69;89.16;101703.44;5588698;31;34361;-67
2021/12/22 06:44:34;;;;;;;15.57;8.65;;;;;;;-2.62;89.14;101705.84;5589739;31;34261;-67
2021/12/22 06:47:37;;;;;;;15.82;9.00;;;;;;;-2.64;87.91;101705.88;5591163;31;33024;-67
2021/12/22 06:50:40;;;;;;;21.98;9.38;;;;;;;-2.69;88.63;101708.66;5590984;31;33816;-67
2021/12/22 06:53:43;;;;;;;17.83;8.60;;;;;;;-2.70;88.66;101712.13;5590408;31;34153;-69
2021/12/22 06:56:46;;;;;;;17.83;9.93;;;;;;;-2.72;89.39;101711.34;5592172;31;33929;-66
2021/12/22 06:59:49;;;;;;;17.85;8.57;;;;;;;-2.74;89.07;101710.53;5591157;31;33917;-67
2021/12/22 07:02:53;;;;;;;14.27;7.90;;;;;;;-2.75;88.36;101708.00;5591116;31;33845;-68
2021/12/22 07:05:56;;;;;;;18.67;8.90;;;;;;;-2.73;89.07;101712.25;5590101;31;33956;-67
2021/12/22 07:08:59;;;;;;;23.75;10.38;;;;;;;-2.49;88.81;101707.97;5590810;31;34199;-67
2021/12/22 07:12:02;;;;;;;17.67;9.60;;;;;;;-2.64;88.95;101716.28;5590556;31;35054;-67
2021/12/22 07:15:05;;;;;;;19.08;8.70;;;;;;;-2.71;88.70;101709.62;5590736;31;33889;-67
2021/12/22 07:18:10;;;;;;;22.08;7.65;;;;;;;-2.65;88.53;101715.44;5591100;31;33869;-68
2021/12/22 07:21:13;;;;;;;15.93;8.00;;;;;;;-2.62;86.85;101721.44;5590098;31;33991;-67
2021/12/22 07:24:16;;;;;;;16.50;8.05;;;;;;;-2.41;86.36;101720.69;5590689;31;34165;-67
2021/12/22 07:27:19;;;;;;;15.38;7.55;;;;;;;-2.27;84.36;101721.91;5590379;31;34467;-67
2021/12/22 07:30:22;;;;;;;15.00;7.85;;;;;;;-2.47;84.30;101724.34;5590671;31;33938;-67
2021/12/22 07:33:25;;;;;;;16.80;7.78;;;;;;;-2.43;85.00;101732.91;5590963;31;34463;-67
2021/12/22 07:36:27;;;;;;;14.87;7.22;;;;;;;-2.36;84.75;101727.44;5590979;31;35070;-67
2021/12/22 07:39:30;;;;;;;15.20;6.85;;;;;;;-2.29;84.44;101731.53;5590435;31;34547;-67
2021/12/22 07:42:33;;;;;;;16.25;8.02;;;;;;;-2.20;83.70;101732.94;5590663;31;34005;-67
2021/12/22 07:45:35;;;;;;;18.23;8.18;;;;;;;-2.22;83.86;101727.78;5590490;31;33806;-67
2021/12/22 07:48:38;;;;;;;18.67;8.65;;;;;;;-2.15;84.36;101741.44;5590439;31;34455;-68
2021/12/22 07:51:41;;;;;;;20.08;9.18;;;;;;;-2.01;84.79;101735.75;5589896;31;34559;-67
2021/12/22 07:54:44;;;;;;;19.80;10.10;;;;;;;-1.83;84.71;101745.47;5590135;31;34123;-68
2021/12/22 07:57:46;;;;;;;18.52;9.80;;;;;;;-1.57;83.99;101755.78;5590121;31;34052;-69
2021/12/22 08:00:51;;;;;;;21.20;8.80;;;;;;;-1.47;83.60;101748.47;5590390;31;34595;-68
2021/12/22 08:03:54;;;;;;;25.55;8.40;;;;;;;-1.27;82.88;101745.97;5590335;31;33786;-69
2021/12/22 08:06:57;;;;;;;19.48;7.82;;;;;;;-1.34;80.35;101755.75;5589974;31;34712;-68
2021/12/22 08:10:00;;;;;;;21.17;8.30;;;;;;;-1.42;80.17;101763.03;5590116;31;35101;-68
2021/12/22 08:13:03;;;;;;;17.48;8.25;;;;;;;-1.49;79.91;101755.47;5590323;31;33983;-68
2021/12/22 08:16:06;;;;;;;18.08;7.15;;;;;;;-1.56;79.44;101759.25;5589870;31;35252;-68
2021/12/22 08:19:09;;;;;;;20.70;7.82;;;;;;;-1.48;77.73;101762.41;5590346;31;33934;-68
2021/12/22 08:22:12;;;;;;;15.10;7.07;;;;;;;-1.42;76.63;101762.16;5590115;31;33919;-68
2021/12/22 08:25:14;;;;;;;19.67;7.28;;;;;;;-1.38;75.84;101766.34;5590254;31;33901;-68
2021/12/22 08:28:17;;;;;;;11.73;5.62;;;;;;;-1.40;75.09;101771.59;5589882;31;34142;-68
2021/12/22 08:31:20;;;;;;;12.98;5.85;;;;;;;-1.49;73.23;101771.94;5589749;31;33810;-68
2021/12/22 08:34:28;;;;;;;17.58;6.70;;;;;;;-1.53;72.58;101778.19;5590554;31;33824;-68
2021/12/22 08:40:52;;;;;;;13.70;6.43;;;;;;;-1.47;73.65;101782.31;5590152;31;34591;-67
2021/12/22 08:43:57;;;;;;;15.93;6.62;;;;;;;-1.58;73.15;101781.84;5590122;31;34615;-66
2021/12/22 08:47:01;;;;;;;16.85;6.43;;;;;;;-1.34;73.19;101788.75;5590053;31;34094;-68
2021/12/22 08:50:06;;;;;;;15.90;6.80;;;;;;;-1.23;72.06;101785.75;5589978;31;34011;-66
2021/12/22 08:53:09;;;;;;;14.90;6.03;;;;;;;-1.06;71.34;101794.59;5589974;31;33871;-68
2021/12/22 08:56:12;;;;;;;15.27;6.72;;;;;;;-0.76;70.56;101794.31;5590178;31;33921;-66
2021/12/22 08:59:16;;;;;;;16.12;6.47;;;;;;;-0.73;69.69;101795.06;5589882;31;33899;-68
2021/12/22 09:02:18;;;;;;;15.32;6.57;;;;;;;-0.61;69.17;101794.53;5589692;31;33961;-68
2021/12/22 09:05:21;;;;;;;10.68;6.15;;;;;;;-0.36;68.48;101791.78;5589900;31;34562;-68
2021/12/22 09:08:24;;;;;;;11.95;6.40;;;;;;;-0.92;68.43;101788.88;5588773;31;35281;-68
2021/12/22 09:11:27;;;;;;;17.40;6.00;;;;;;;-0.90;69.82;101795.69;5589746;31;35206;-68
2021/12/22 09:14:30;;;;;;;15.55;6.68;;;;;;;-0.53;69.46;101799.44;5589709;31;33971;-67
2021/12/22 09:17:33;;;;;;;17.02;6.78;;;;;;;-0.98;70.45;101799.53;5589818;31;34493;-68
2021/12/22 09:20:35;;;;;;;14.02;6.40;;;;;;;-0.78;70.38;101798.75;5589770;31;34375;-68
2021/12/22 09:23:39;;;;;;;13.88;6.28;;;;;;;-0.53;67.58;101797.66;5589748;31;33946;-68
2021/12/22 09:26:41;;;;;;;16.02;8.10;;;;;;;-0.66;67.25;101791.28;5589515;31;34025;-68
2021/12/22 09:29:45;;;;;;;15.82;6.80;;;;;;;-0.74;67.27;101793.34;5589620;31;34366;-65
2021/12/22 09:32:48;;;;;;;17.75;6.60;;;;;;;-0.74;68.14;101792.50;5589669;31;33829;-68
2021/12/22 09:35:52;;;;;;;15.20;7.22;;;;;;;-0.63;67.56;101793.75;5589343;31;34171;-67
2021/12/22 09:38:55;;;;;;;14.48;7.32;;;;;;;-0.70;67.39;101797.53;5589705;31;34713;-66
2021/12/22 09:41:58;;;;;;;12.37;6.53;;;;;;;-0.92;67.80;101796.69;5588914;31;33857;-66
2021/12/22 09:45:02;;;;;;;18.10;7.28;;;;;;;-1.05;67.92;101803.25;5589396;31;33939;-67
2021/12/22 09:54:14;;;;;;;16.35;7.30;;;;;;;-0.06;65.81;101785.28;5589227;31;33812;-67
2021/12/22 09:57:18;;;;;;;13.30;6.47;;;;;;;-0.02;65.64;101773.78;5589146;31;34562;-67
2021/12/22 10:00:20;;;;;;;18.48;6.12;;;;;;;0.26;64.59;101780.41;5589625;31;34120;-67
2021/12/22 10:03:25;;;;;;;14.38;6.35;;;;;;;0.19;63.49;101779.00;5589137;31;33995;-67
2021/12/22 10:06:28;;;;;;;16.08;6.35;;;;;;;-0.10;64.24;101775.87;5589162;31;33909;-67
2021/12/22 10:09:31;;;;;;;13.32;6.50;;;;;;;0.37;62.94;101778.16;5589044;31;33868;-67
2021/12/22 10:12:35;;;;;;;11.60;6.57;;;;;;;0.44;62.15;101775.19;5588385;31;34467;-67
2021/12/22 10:15:38;;;;;;;14.60;6.90;;;;;;;0.28;63.03;101768.13;5588825;31;33878;-68
2021/12/22 10:18:42;;;;;;;13.62;7.00;;;;;;;0.10;62.75;101774.19;5588847;31;33884;-67
2021/12/22 10:21:50;;;;;;;14.90;7.30;;;;;;;-0.29;64.20;101768.91;5588976;31;34060;-67
2021/12/22 10:25:10;;;;;;;13.05;5.82;;;;;;;-0.39;64.08;101775.44;5588778;31;34022;-67
2021/12/22 10:28:18;;;;;;;19.15;6.90;;;;;;;-0.52;64.46;101773.31;5584025;31;125408;-67
2021/12/22 10:31:34;;;;;;;15.25;6.50;;;;;;;0.02;63.25;101773.66;5588812;31;34604;-67
2021/12/22 10:34:54;;;;;;;12.05;5.60;;;;;;;-0.02;62.71;101771.19;5588748;31;33866;-67
2021/12/22 10:37:59;;;;;;;13.13;6.30;;;;;;;0.14;61.92;101768.75;5588050;31;34569;-67
2021/12/22 10:41:08;;;;;;;11.40;6.20;;;;;;;-0.45;62.57;101759.13;5588578;31;34519;-67
2021/12/22 10:44:10;;;;;;;13.43;6.07;;;;;;;-0.21;62.15;101767.66;5587742;31;34528;-67
2021/12/22 10:49:14;;;;;;;13.10;6.40;;;;;;;-0.01;62.35;101759.84;5588969;31;33968;-67
2021/12/22 10:50:59;;;;;;;14.13;6.50;;;;;;;-0.33;63.24;101767.31;5587825;31;34551;-67
2021/12/22 10:54:07;;;;;;;11.10;6.25;;;;;;;0.15;62.64;101754.78;5588554;31;33877;-67
2021/12/22 10:57:12;;;;;;;12.40;7.05;;;;;;;0.39;62.42;101753.69;5588520;31;34566;-67
2021/12/22 11:00:21;;;;;;;12.35;6.53;;;;;;;0.25;61.87;101750.00;5589021;31;34600;-67
2021/12/22 11:03:35;;;;;;;16.87;6.43;;;;;;;0.36;61.12;101752.97;5588095;31;34654;-67
2021/12/22 11:06:39;;;;;;;16.08;6.80;;;;;;;0.61;59.81;101750.09;5588324;31;34679;-68
2021/12/22 11:09:43;;;;;;;17.42;7.35;;;;;;;0.47;60.22;101742.91;5588244;31;33955;-67
2021/12/22 11:12:46;;;;;;;15.77;7.32;;;;;;;0.41;62.84;101748.41;5588638;31;34006;-67
2021/12/22 11:15:53;;;;;;;11.57;6.25;;;;;;;0.14;62.91;101745.28;5587981;31;33805;-67
2021/12/22 11:19:08;;;;;;;13.73;6.60;;;;;;;0.37;63.10;101744.22;5588071;31;34666;-67
2021/12/22 11:22:14;;;;;;;10.93;6.20;;;;;;;0.73;62.88;101739.06;5587223;31;33965;-68
2021/12/22 11:25:18;;;;;;;12.45;5.60;;;;;;;0.88;61.52;101735.72;5587993;31;33899;-67
2021/12/22 11:28:20;;;;;;;10.40;5.97;;;;;;;1.01;61.45;101734.25;5587578;31;34584;-67
2021/12/22 11:31:23;;;;;;;16.40;7.10;;;;;;;0.89;61.69;101732.19;5588957;31;34463;-67
2021/12/22 11:34:30;;;;;;;15.82;6.57;;;;;;;0.62;61.96;101734.38;5590685;31;33876;-67
2021/12/22 11:37:33;;;;;;;9.60;5.97;;;;;;;0.38;62.49;101723.28;5590627;31;33840;-67
2021/12/22 11:40:36;;;;;;;13.02;6.65;;;;;;;0.24;62.91;101720.44;5590578;31;34425;-68
2021/12/22 11:43:41;;;;;;;14.75;7.18;;;;;;;0.55;62.48;101721.66;5590552;31;33891;-67
2021/12/22 11:46:44;;;;;;;15.32;6.82;;;;;;;0.75;61.37;101714.59;5590605;31;34015;-67
2021/12/22 11:49:59;;;;;;;16.40;7.75;;;;;;;0.11;63.22;101718.44;5590830;31;33889;-67
2021/12/22 11:53:08;;;;;;;14.55;7.45;;;;;;;0.51;62.35;101718.34;5590493;31;33957;-67
2021/12/22 11:56:44;;;;;;;14.87;7.00;;;;;;;0.19;63.23;101717.22;5590314;31;33754;-68
2021/12/22 11:59:47;;;;;;;11.68;6.47;;;;;;;0.58;62.12;101717.13;5589930;31;33883;-68
2021/12/22 12:02:51;;;;;;;18.48;6.40;;;;;;;0.70;59.87;101716.56;5590234;31;33889;-68
2021/12/22 12:06:09;;;;;;;12.60;6.03;;;;;;;0.63;60.18;101717.75;5590285;31;34571;-68
2021/12/22 12:09:12;;;;;;;13.80;6.12;;;;;;;0.26;59.96;101713.41;5590148;31;34189;-68
2021/12/22 12:12:52;;;;;;;14.98;6.55;;;;;;;0.18;61.00;101707.69;5590225;31;33851;-67
2021/12/22 12:23:33;;;;;;;12.95;6.62;;;;;;;-0.39;64.12;101705.03;5590131;31;34442;-67
2021/12/22 12:26:38;;;;;;;15.65;8.00;;;;;;;-0.24;63.07;101707.81;5589868;31;34514;-67
2021/12/22 12:30:04;;;;;;;18.27;7.53;;;;;;;-0.13;62.86;101704.72;5590592;31;34144;-67
2021/12/22 12:33:09;;;;;;;13.48;7.28;;;;;;;-0.36;64.67;101703.12;5590052;31;34494;-67
2021/12/22 12:36:15;;;;;;;14.52;7.43;;;;;;;-0.06;63.96;101698.34;5590133;31;33903;-67
2021/12/22 12:39:54;;;;;;;12.98;6.57;;;;;;;0.22;63.75;101703.16;5589802;31;33954;-67
2021/12/22 12:42:59;;;;;;;13.50;7.30;;;;;;;0.24;61.99;101690.91;5557255;31;33786;-67
2021/12/22 12:46:02;;;;;;;17.55;7.25;;;;;;;0.32;62.29;101691.41;5590089;31;33841;-67
2021/12/22 12:49:04;;;;;;;14.82;8.10;;;;;;;0.20;63.33;101689.31;5589981;31;34540;-67
2021/12/22 12:52:10;;;;;;;13.18;6.78;;;;;;;0.29;63.96;101688.94;5590301;31;34223;-68
2021/12/22 12:55:15;;;;;;;17.08;7.78;;;;;;;0.33;62.65;101690.47;5589798;31;33783;-67
2021/12/22 12:58:28;;;;;;;15.40;7.50;;;;;;;0.27;63.69;101701.19;5589856;31;33999;-67
2021/12/22 13:01:50;;;;;;;13.40;7.80;;;;;;;0.33;62.73;101693.09;5589788;31;34541;-67
2021/12/22 13:05:02;;;;;;;16.73;8.05;;;;;;;0.40;62.91;101695.34;5589768;31;34026;-67
2021/12/22 13:08:06;;;;;;;16.30;7.10;;;;;;;0.62;62.80;101691.72;5589692;31;33936;-67
2021/12/22 13:11:13;;;;;;;15.65;8.25;;;;;;;0.59;61.65;101710.12;5589721;31;34265;-68
2021/12/22 13:18:01;;;;;;;17.73;8.77;;;;;;;0.67;63.21;101695.81;5589493;31;33809;-68
2021/12/22 13:21:07;;;;;;;20.62;9.02;;;;;;;0.66;64.00;101701.09;5589750;31;33981;-67
2021/12/22 13:24:19;;;;;;;17.62;9.05;;;;;;;0.32;64.93;101689.62;5589607;31;34323;-67
2021/12/22 13:27:29;;;;;;;23.73;8.82;;;;;;;0.46;64.63;101693.34;5589148;31;34856;-67
2021/12/22 13:30:33;;;;;;;;;;;;;;;0.56;63.80;101692.88;5590039;31;33920;-68
2021/12/22 13:33:39;;;;;;;22.55;9.10;;;;;;;0.42;64.13;101688.28;5588957;31;34618;-67
2021/12/22 13:36:42;;;;;;;19.00;9.10;;;;;;;0.30;65.34;101691.44;5589615;31;34662;-67
2021/12/22 13:39:45;;;;;;;18.77;8.98;;;;;;;0.15;65.49;101697.38;5589489;31;34509;-67
2021/12/22 13:42:48;;;;;;;19.42;9.18;;;;;;;0.24;65.56;101693.53;5589772;31;34726;-68
2021/12/22 13:45:56;;;;;;;16.83;8.65;;;;;;;0.30;65.80;101698.44;5589531;31;33814;-68
2021/12/22 13:49:03;;;;;;;19.90;9.32;;;;;;;0.30;65.44;101698.44;5589896;31;33783;-67
2021/12/22 13:52:07;;;;;;;20.27;9.88;;;;;;;0.02;66.70;101700.59;5589890;31;33814;-67
2021/12/22 13:55:10;;;;;;;20.37;10.00;;;;;;;0.15;66.60;101709.56;5588646;31;33864;-67
2021/12/22 13:58:36;;;;;;;19.77;9.57;;;;;;;-0.02;66.41;101702.50;5589483;31;33892;-67
2021/12/22 14:01:46;;;;;;;23.08;10.10;;;;;;;-0.04;67.31;101701.72;5589375;31;33975;-67
2021/12/22 14:04:50;;;;;;;;;;;;;;;-0.25;68.15;101695.69;5589659;31;34184;-67
2021/12/22 14:07:53;;;;;;;18.95;10.13;;;;;;;-0.40;69.08;101690.28;5589498;31;34838;-67
2021/12/22 14:10:56;;;;;;;24.27;10.57;;;;;;;-0.27;69.94;101699.28;5589243;31;33879;-67
2021/12/22 14:14:31;;;;;;;20.12;10.43;;;;;;;-0.30;69.10;101697.66;5589247;31;33933;-67
2021/12/22 14:17:37;;;;;;;22.83;9.82;;;;;;;-0.32;68.47;101696.88;5589032;31;33825;-67
2021/12/22 14:20:40;;;;;;;21.73;10.77;;;;;;;-0.33;68.20;101691.72;5588927;31;33903;-67
2021/12/22 14:23:42;;;;;;;23.12;11.07;;;;;;;-0.45;69.81;101686.12;5589189;31;33793;-67
2021/12/22 14:26:49;;;;;;;21.23;10.35;;;;;;;-0.59;70.85;101695.44;5587759;31;33967;-67
2021/12/22 14:29:52;;;;;;;26.40;10.35;;;;;;;-0.55;70.95;101687.44;5589009;31;33823;-67
2021/12/22 14:33:07;;;;;;;23.98;10.00;;;;;;;-0.63;70.93;101694.72;5588759;31;34476;-67
2021/12/22 14:36:10;;;;;;;20.77;9.85;;;;;;;-0.78;71.83;101692.78;5588891;31;34556;-67
2021/12/22 14:39:13;;;;;;;22.65;10.35;;;;;;;-0.90;70.92;101694.09;5588885;31;34491;-67
2021/12/22 14:42:31;;;;;;;25.95;11.23;;;;;;;-0.96;71.28;101685.69;5588661;31;34383;-67
2021/12/22 14:45:35;;;;;;;21.12;11.50;;;;;;;-1.01;71.52;101685.88;5588757;31;34482;-67
2021/12/22 14:48:41;;;;;;;22.20;11.52;;;;;;;-1.01;72.48;101698.06;5588618;31;34535;-67